sensor_id;sensor_type;location;lat;lon;timestamp;P1;durP1;ratioP1;P2;durP2;ratioP2
68938;SDS011;59064;45.294;11.816;2023-05-07T00:01:13;10.50;;;7.30;;
68938;SDS011;59064;45.294;11.816;2023-05-07T00:03:38;9.80;;;7.40;;
68938;SDS011;59064;45.294;11.816;2023-05-07T00:06:04;11.50;;;7.30;;
68938;SDS011;59064;45.294;11.816;2023-05-07T00:08:30;9.90;;;7.20;;
68938;SDS011;59064;45.294;11.816;2023-05-07T00:10:55;11.60;;;7.80;;
68938;SDS011;59064;45.294;11.816;2023-05-07T00:13:21;12.70;;;8.20;;
68938;SDS011;59064;45.294;11.816;2023-05-07T00:15:46;10.90;;;7.80;;
68938;SDS011;59064;45.294;11.816;2023-05-07T00:18:12;14.50;;;9.10;;
68938;SDS011;59064;45.294;11.816;2023-05-07T00:20:38;12.80;;;8.40;;
68938;SDS011;59064;45.294;11.816;2023-05-07T00:23:04;13.20;;;8.60;;
68938;SDS011;59064;45.294;11.816;2023-05-07T00:25:29;11.50;;;8.10;;
68938;SDS011;59064;45.294;11.816;2023-05-07T00:27:55;12.20;;;8.40;;
68938;SDS011;59064;45.294;11.816;2023-05-07T00:30:21;11.00;;;7.40;;
68938;SDS011;59064;45.294;11.816;2023-05-07T00:32:46;10.10;;;7.50;;
68938;SDS011;59064;45.294;11.816;2023-05-07T00:35:14;10.80;;;7.80;;
68938;SDS011;59064;45.294;11.816;2023-05-07T00:37:39;12.10;;;8.60;;
68938;SDS011;59064;45.294;11.816;2023-05-07T00:40:05;11.00;;;8.60;;
68938;SDS011;59064;45.294;11.816;2023-05-07T00:42:32;10.00;;;7.10;;
68938;SDS011;59064;45.294;11.816;2023-05-07T00:44:58;12.30;;;7.90;;
68938;SDS011;59064;45.294;11.816;2023-05-07T00:47:25;13.40;;;8.00;;
68938;SDS011;59064;45.294;11.816;2023-05-07T00:49:50;12.30;;;8.40;;
68938;SDS011;59064;45.294;11.816;2023-05-07T00:52:17;11.20;;;7.90;;
68938;SDS011;59064;45.294;11.816;2023-05-07T00:54:44;12.30;;;8.20;;
68938;SDS011;59064;45.294;11.816;2023-05-07T00:57:10;14.80;;;9.30;;
68938;SDS011;59064;45.294;11.816;2023-05-07T00:59:36;14.30;;;9.30;;
68938;SDS011;59064;45.294;11.816;2023-05-07T01:02:03;13.30;;;8.90;;
68938;SDS011;59064;45.294;11.816;2023-05-07T01:04:28;14.50;;;8.90;;
68938;SDS011;59064;45.294;11.816;2023-05-07T01:06:55;12.90;;;8.80;;
68938;SDS011;59064;45.294;11.816;2023-05-07T01:09:21;11.70;;;8.40;;
68938;SDS011;59064;45.294;11.816;2023-05-07T01:11:49;13.60;;;9.30;;
68938;SDS011;59064;45.294;11.816;2023-05-07T01:14:16;12.80;;;8.80;;
68938;SDS011;59064;45.294;11.816;2023-05-07T01:16:42;12.20;;;9.10;;
68938;SDS011;59064;45.294;11.816;2023-05-07T01:19:08;17.30;;;9.80;;
68938;SDS011;59064;45.294;11.816;2023-05-07T01:21:38;13.80;;;9.30;;
68938;SDS011;59064;45.294;11.816;2023-05-07T01:24:04;13.10;;;9.00;;
68938;SDS011;59064;45.294;11.816;2023-05-07T01:26:30;13.00;;;9.90;;
68938;SDS011;59064;45.294;11.816;2023-05-07T01:28:56;14.10;;;9.90;;
68938;SDS011;59064;45.294;11.816;2023-05-07T01:31:21;14.50;;;10.20;;
68938;SDS011;59064;45.294;11.816;2023-05-07T01:33:49;13.70;;;9.50;;
68938;SDS011;59064;45.294;11.816;2023-05-07T01:36:17;13.40;;;9.50;;
68938;SDS011;59064;45.294;11.816;2023-05-07T01:38:44;12.50;;;9.90;;
68938;SDS011;59064;45.294;11.816;2023-05-07T01:41:11;13.50;;;10.40;;
68938;SDS011;59064;45.294;11.816;2023-05-07T01:43:38;14.30;;;10.00;;
68938;SDS011;59064;45.294;11.816;2023-05-07T01:46:06;12.90;;;9.70;;
68938;SDS011;59064;45.294;11.816;2023-05-07T01:48:35;15.40;;;10.40;;
68938;SDS011;59064;45.294;11.816;2023-05-07T01:51:01;15.60;;;10.40;;
68938;SDS011;59064;45.294;11.816;2023-05-07T01:53:27;13.80;;;9.80;;
68938;SDS011;59064;45.294;11.816;2023-05-07T01:55:53;15.00;;;10.50;;
68938;SDS011;59064;45.294;11.816;2023-05-07T01:58:19;15.30;;;11.50;;
68938;SDS011;59064;45.294;11.816;2023-05-07T02:00:44;14.40;;;10.80;;
68938;SDS011;59064;45.294;11.816;2023-05-07T02:03:10;14.10;;;10.50;;
68938;SDS011;59064;45.294;11.816;2023-05-07T02:05:35;14.30;;;10.70;;
68938;SDS011;59064;45.294;11.816;2023-05-07T02:08:01;16.60;;;12.00;;
68938;SDS011;59064;45.294;11.816;2023-05-07T02:10:26;17.60;;;13.00;;
68938;SDS011;59064;45.294;11.816;2023-05-07T02:12:53;16.70;;;12.20;;
68938;SDS011;59064;45.294;11.816;2023-05-07T02:15:18;15.40;;;11.80;;
68938;SDS011;59064;45.294;11.816;2023-05-07T02:20:29;14.80;;;10.90;;
68938;SDS011;59064;45.294;11.816;2023-05-07T02:22:55;14.80;;;10.80;;
68938;SDS011;59064;45.294;11.816;2023-05-07T02:25:20;16.00;;;11.10;;
68938;SDS011;59064;45.294;11.816;2023-05-07T02:27:46;19.90;;;11.00;;
68938;SDS011;59064;45.294;11.816;2023-05-07T02:30:11;18.20;;;11.90;;
68938;SDS011;59064;45.294;11.816;2023-05-07T02:32:39;15.00;;;10.20;;
68938;SDS011;59064;45.294;11.816;2023-05-07T02:35:04;15.40;;;10.60;;
68938;SDS011;59064;45.294;11.816;2023-05-07T02:37:30;15.30;;;10.40;;
68938;SDS011;59064;45.294;11.816;2023-05-07T02:39:56;15.30;;;10.20;;
68938;SDS011;59064;45.294;11.816;2023-05-07T02:42:21;16.30;;;12.10;;
68938;SDS011;59064;45.294;11.816;2023-05-07T02:44:47;18.30;;;12.70;;
68938;SDS011;59064;45.294;11.816;2023-05-07T02:47:14;19.60;;;12.80;;
68938;SDS011;59064;45.294;11.816;2023-05-07T02:49:40;17.10;;;12.60;;
68938;SDS011;59064;45.294;11.816;2023-05-07T02:52:05;16.10;;;12.60;;
68938;SDS011;59064;45.294;11.816;2023-05-07T02:54:31;20.50;;;12.70;;
68938;SDS011;59064;45.294;11.816;2023-05-07T02:56:57;17.00;;;12.30;;
68938;SDS011;59064;45.294;11.816;2023-05-07T02:59:23;15.30;;;11.20;;
68938;SDS011;59064;45.294;11.816;2023-05-07T03:01:48;18.70;;;11.90;;
68938;SDS011;59064;45.294;11.816;2023-05-07T03:04:14;17.50;;;11.90;;
68938;SDS011;59064;45.294;11.816;2023-05-07T03:06:40;17.00;;;11.20;;
68938;SDS011;59064;45.294;11.816;2023-05-07T03:09:06;16.30;;;11.60;;
68938;SDS011;59064;45.294;11.816;2023-05-07T03:11:32;15.30;;;10.70;;
68938;SDS011;59064;45.294;11.816;2023-05-07T03:13:57;16.00;;;11.50;;
68938;SDS011;59064;45.294;11.816;2023-05-07T03:16:23;16.40;;;11.80;;
68938;SDS011;59064;45.294;11.816;2023-05-07T03:18:48;16.40;;;12.20;;
68938;SDS011;59064;45.294;11.816;2023-05-07T03:21:14;14.50;;;10.80;;
68938;SDS011;59064;45.294;11.816;2023-05-07T03:23:39;16.20;;;11.50;;
68938;SDS011;59064;45.294;11.816;2023-05-07T03:26:05;15.60;;;10.80;;
68938;SDS011;59064;45.294;11.816;2023-05-07T03:28:30;14.70;;;10.60;;
68938;SDS011;59064;45.294;11.816;2023-05-07T03:30:56;16.50;;;11.30;;
68938;SDS011;59064;45.294;11.816;2023-05-07T03:33:21;16.40;;;11.30;;
68938;SDS011;59064;45.294;11.816;2023-05-07T03:35:47;15.10;;;10.30;;
68938;SDS011;59064;45.294;11.816;2023-05-07T03:38:12;15.70;;;10.00;;
68938;SDS011;59064;45.294;11.816;2023-05-07T03:40:38;16.40;;;11.40;;
68938;SDS011;59064;45.294;11.816;2023-05-07T03:43:03;13.80;;;10.10;;
68938;SDS011;59064;45.294;11.816;2023-05-07T03:45:29;15.10;;;10.00;;
68938;SDS011;59064;45.294;11.816;2023-05-07T03:47:54;13.60;;;10.00;;
68938;SDS011;59064;45.294;11.816;2023-05-07T03:50:20;12.30;;;9.30;;
68938;SDS011;59064;45.294;11.816;2023-05-07T03:52:46;14.20;;;9.60;;
68938;SDS011;59064;45.294;11.816;2023-05-07T03:55:12;13.70;;;9.10;;
68938;SDS011;59064;45.294;11.816;2023-05-07T03:57:37;13.30;;;9.30;;
68938;SDS011;59064;45.294;11.816;2023-05-07T04:00:03;13.10;;;9.80;;
68938;SDS011;59064;45.294;11.816;2023-05-07T04:02:30;14.00;;;9.60;;
68938;SDS011;59064;45.294;11.816;2023-05-07T04:04:55;12.50;;;8.60;;
68938;SDS011;59064;45.294;11.816;2023-05-07T04:07:21;12.30;;;8.50;;
68938;SDS011;59064;45.294;11.816;2023-05-07T04:09:47;15.70;;;9.10;;
68938;SDS011;59064;45.294;11.816;2023-05-07T04:12:13;13.20;;;9.70;;
68938;SDS011;59064;45.294;11.816;2023-05-07T04:14:39;13.20;;;8.90;;
68938;SDS011;59064;45.294;11.816;2023-05-07T04:17:04;12.30;;;9.20;;
68938;SDS011;59064;45.294;11.816;2023-05-07T04:19:32;12.20;;;8.60;;
68938;SDS011;59064;45.294;11.816;2023-05-07T04:21:58;12.90;;;9.60;;
68938;SDS011;59064;45.294;11.816;2023-05-07T04:24:24;14.90;;;9.60;;
68938;SDS011;59064;45.294;11.816;2023-05-07T04:26:49;12.00;;;9.40;;
68938;SDS011;59064;45.294;11.816;2023-05-07T04:29:16;16.00;;;11.00;;
68938;SDS011;59064;45.294;11.816;2023-05-07T04:31:43;13.50;;;10.20;;
68938;SDS011;59064;45.294;11.816;2023-05-07T04:34:11;13.60;;;9.40;;
68938;SDS011;59064;45.294;11.816;2023-05-07T04:36:40;11.30;;;8.40;;
68938;SDS011;59064;45.294;11.816;2023-05-07T04:39:05;12.70;;;10.30;;
68938;SDS011;59064;45.294;11.816;2023-05-07T04:41:31;14.70;;;10.60;;
68938;SDS011;59064;45.294;11.816;2023-05-07T04:43:57;13.30;;;9.30;;
68938;SDS011;59064;45.294;11.816;2023-05-07T04:46:24;15.10;;;10.40;;
68938;SDS011;59064;45.294;11.816;2023-05-07T04:48:49;13.00;;;9.50;;
68938;SDS011;59064;45.294;11.816;2023-05-07T04:51:15;16.70;;;9.60;;
68938;SDS011;59064;45.294;11.816;2023-05-07T04:53:41;13.00;;;9.20;;
68938;SDS011;59064;45.294;11.816;2023-05-07T04:56:08;13.90;;;10.20;;
68938;SDS011;59064;45.294;11.816;2023-05-07T04:58:33;13.70;;;9.60;;
68938;SDS011;59064;45.294;11.816;2023-05-07T05:00:59;15.70;;;9.80;;
68938;SDS011;59064;45.294;11.816;2023-05-07T05:03:25;13.70;;;9.10;;
68938;SDS011;59064;45.294;11.816;2023-05-07T05:05:51;14.30;;;9.00;;
68938;SDS011;59064;45.294;11.816;2023-05-07T05:08:17;11.40;;;8.40;;
68938;SDS011;59064;45.294;11.816;2023-05-07T05:10:42;11.70;;;9.00;;
68938;SDS011;59064;45.294;11.816;2023-05-07T05:13:08;11.80;;;9.10;;
68938;SDS011;59064;45.294;11.816;2023-05-07T05:15:34;12.70;;;8.90;;
68938;SDS011;59064;45.294;11.816;2023-05-07T05:18:00;11.70;;;8.00;;
68938;SDS011;59064;45.294;11.816;2023-05-07T05:20:26;9.30;;;6.80;;
68938;SDS011;59064;45.294;11.816;2023-05-07T05:22:51;12.50;;;9.50;;
68938;SDS011;59064;45.294;11.816;2023-05-07T05:25:17;11.00;;;9.20;;
68938;SDS011;59064;45.294;11.816;2023-05-07T05:27:42;10.30;;;7.80;;
68938;SDS011;59064;45.294;11.816;2023-05-07T05:30:09;13.10;;;9.80;;
68938;SDS011;59064;45.294;11.816;2023-05-07T05:32:35;10.50;;;8.20;;
68938;SDS011;59064;45.294;11.816;2023-05-07T05:35:00;13.30;;;10.20;;
68938;SDS011;59064;45.294;11.816;2023-05-07T05:37:26;13.90;;;10.90;;
68938;SDS011;59064;45.294;11.816;2023-05-07T05:39:52;13.40;;;10.50;;
68938;SDS011;59064;45.294;11.816;2023-05-07T05:42:19;13.90;;;9.30;;
68938;SDS011;59064;45.294;11.816;2023-05-07T05:44:45;15.50;;;10.60;;
68938;SDS011;59064;45.294;11.816;2023-05-07T05:47:10;17.00;;;11.60;;
68938;SDS011;59064;45.294;11.816;2023-05-07T05:49:36;15.40;;;11.50;;
68938;SDS011;59064;45.294;11.816;2023-05-07T05:52:02;16.90;;;12.30;;
68938;SDS011;59064;45.294;11.816;2023-05-07T05:54:28;17.10;;;13.10;;
68938;SDS011;59064;45.294;11.816;2023-05-07T05:56:54;16.70;;;11.90;;
68938;SDS011;59064;45.294;11.816;2023-05-07T05:59:20;15.90;;;11.90;;
68938;SDS011;59064;45.294;11.816;2023-05-07T06:01:46;14.00;;;11.50;;
68938;SDS011;59064;45.294;11.816;2023-05-07T06:04:12;15.50;;;12.90;;
68938;SDS011;59064;45.294;11.816;2023-05-07T06:06:37;16.20;;;12.70;;
68938;SDS011;59064;45.294;11.816;2023-05-07T06:09:03;15.70;;;11.70;;
68938;SDS011;59064;45.294;11.816;2023-05-07T06:11:29;16.30;;;12.60;;
68938;SDS011;59064;45.294;11.816;2023-05-07T06:13:54;16.50;;;12.00;;
68938;SDS011;59064;45.294;11.816;2023-05-07T06:16:20;17.70;;;13.10;;
68938;SDS011;59064;45.294;11.816;2023-05-07T06:18:46;14.60;;;10.70;;
68938;SDS011;59064;45.294;11.816;2023-05-07T06:21:13;17.50;;;13.50;;
68938;SDS011;59064;45.294;11.816;2023-05-07T06:23:39;18.90;;;13.90;;
68938;SDS011;59064;45.294;11.816;2023-05-07T06:26:06;18.50;;;14.10;;
68938;SDS011;59064;45.294;11.816;2023-05-07T06:28:32;18.40;;;13.00;;
68938;SDS011;59064;45.294;11.816;2023-05-07T06:31:19;16.00;;;10.90;;
68938;SDS011;59064;45.294;11.816;2023-05-07T06:33:45;21.60;;;14.50;;
68938;SDS011;59064;45.294;11.816;2023-05-07T06:36:12;20.40;;;13.50;;
68938;SDS011;59064;45.294;11.816;2023-05-07T06:38:37;19.90;;;16.10;;
68938;SDS011;59064;45.294;11.816;2023-05-07T06:41:05;21.30;;;14.60;;
68938;SDS011;59064;45.294;11.816;2023-05-07T06:43:33;19.20;;;14.00;;
68938;SDS011;59064;45.294;11.816;2023-05-07T06:45:59;19.90;;;14.40;;
68938;SDS011;59064;45.294;11.816;2023-05-07T06:48:25;19.10;;;13.30;;
68938;SDS011;59064;45.294;11.816;2023-05-07T06:50:50;19.60;;;13.80;;
68938;SDS011;59064;45.294;11.816;2023-05-07T06:53:16;18.20;;;14.40;;
68938;SDS011;59064;45.294;11.816;2023-05-07T06:55:42;22.20;;;15.90;;
68938;SDS011;59064;45.294;11.816;2023-05-07T06:58:07;19.70;;;15.50;;
68938;SDS011;59064;45.294;11.816;2023-05-07T07:00:33;17.80;;;14.10;;
68938;SDS011;59064;45.294;11.816;2023-05-07T07:02:59;19.30;;;14.80;;
68938;SDS011;59064;45.294;11.816;2023-05-07T07:05:25;18.90;;;14.30;;
68938;SDS011;59064;45.294;11.816;2023-05-07T07:07:51;16.40;;;12.40;;
68938;SDS011;59064;45.294;11.816;2023-05-07T07:10:19;18.60;;;13.50;;
68938;SDS011;59064;45.294;11.816;2023-05-07T07:12:45;19.90;;;14.40;;
68938;SDS011;59064;45.294;11.816;2023-05-07T07:15:11;20.70;;;15.40;;
68938;SDS011;59064;45.294;11.816;2023-05-07T07:17:36;19.30;;;14.40;;
68938;SDS011;59064;45.294;11.816;2023-05-07T07:20:02;17.70;;;12.90;;
68938;SDS011;59064;45.294;11.816;2023-05-07T07:22:28;16.00;;;12.40;;
68938;SDS011;59064;45.294;11.816;2023-05-07T07:24:54;18.00;;;14.70;;
68938;SDS011;59064;45.294;11.816;2023-05-07T07:27:19;18.80;;;15.30;;
68938;SDS011;59064;45.294;11.816;2023-05-07T07:29:45;16.10;;;13.20;;
68938;SDS011;59064;45.294;11.816;2023-05-07T07:32:10;15.20;;;12.40;;
68938;SDS011;59064;45.294;11.816;2023-05-07T07:34:36;16.60;;;12.30;;
68938;SDS011;59064;45.294;11.816;2023-05-07T07:37:01;17.70;;;14.10;;
68938;SDS011;59064;45.294;11.816;2023-05-07T07:39:30;15.70;;;13.10;;
68938;SDS011;59064;45.294;11.816;2023-05-07T07:41:57;14.30;;;12.30;;
68938;SDS011;59064;45.294;11.816;2023-05-07T07:44:22;15.50;;;12.70;;
68938;SDS011;59064;45.294;11.816;2023-05-07T07:46:48;15.80;;;12.60;;
68938;SDS011;59064;45.294;11.816;2023-05-07T07:49:13;15.30;;;12.00;;
68938;SDS011;59064;45.294;11.816;2023-05-07T07:51:39;13.70;;;10.20;;
68938;SDS011;59064;45.294;11.816;2023-05-07T07:54:05;14.80;;;11.80;;
68938;SDS011;59064;45.294;11.816;2023-05-07T07:56:34;14.30;;;11.30;;
68938;SDS011;59064;45.294;11.816;2023-05-07T07:59:00;18.90;;;13.80;;
68938;SDS011;59064;45.294;11.816;2023-05-07T08:01:26;11.00;;;8.80;;
68938;SDS011;59064;45.294;11.816;2023-05-07T08:03:51;15.90;;;12.10;;
68938;SDS011;59064;45.294;11.816;2023-05-07T08:06:17;14.90;;;12.10;;
68938;SDS011;59064;45.294;11.816;2023-05-07T08:08:43;17.70;;;12.70;;
68938;SDS011;59064;45.294;11.816;2023-05-07T08:11:09;14.90;;;10.90;;
68938;SDS011;59064;45.294;11.816;2023-05-07T08:13:35;13.10;;;10.60;;
68938;SDS011;59064;45.294;11.816;2023-05-07T08:16:01;11.80;;;8.70;;
68938;SDS011;59064;45.294;11.816;2023-05-07T08:18:28;13.40;;;9.60;;
68938;SDS011;59064;45.294;11.816;2023-05-07T08:20:54;11.50;;;9.80;;
68938;SDS011;59064;45.294;11.816;2023-05-07T08:23:20;15.40;;;13.20;;
68938;SDS011;59064;45.294;11.816;2023-05-07T08:25:46;12.10;;;10.50;;
68938;SDS011;59064;45.294;11.816;2023-05-07T08:28:11;14.10;;;10.90;;
68938;SDS011;59064;45.294;11.816;2023-05-07T08:30:37;10.60;;;9.10;;
68938;SDS011;59064;45.294;11.816;2023-05-07T08:33:02;12.40;;;8.80;;
68938;SDS011;59064;45.294;11.816;2023-05-07T08:35:28;11.70;;;8.30;;
68938;SDS011;59064;45.294;11.816;2023-05-07T08:37:53;11.10;;;8.70;;
68938;SDS011;59064;45.294;11.816;2023-05-07T08:40:20;10.90;;;8.50;;
68938;SDS011;59064;45.294;11.816;2023-05-07T08:42:49;11.10;;;8.10;;
68938;SDS011;59064;45.294;11.816;2023-05-07T08:45:18;8.90;;;7.50;;
68938;SDS011;59064;45.294;11.816;2023-05-07T08:47:46;9.20;;;7.90;;
68938;SDS011;59064;45.294;11.816;2023-05-07T08:50:15;10.40;;;7.70;;
68938;SDS011;59064;45.294;11.816;2023-05-07T08:52:41;9.50;;;7.90;;
68938;SDS011;59064;45.294;11.816;2023-05-07T08:55:07;9.00;;;6.70;;
68938;SDS011;59064;45.294;11.816;2023-05-07T08:57:34;10.00;;;6.40;;
68938;SDS011;59064;45.294;11.816;2023-05-07T09:00:00;11.60;;;8.00;;
68938;SDS011;59064;45.294;11.816;2023-05-07T09:02:26;10.20;;;8.10;;
68938;SDS011;59064;45.294;11.816;2023-05-07T09:04:52;10.10;;;7.10;;
68938;SDS011;59064;45.294;11.816;2023-05-07T09:07:18;10.60;;;7.90;;
68938;SDS011;59064;45.294;11.816;2023-05-07T09:09:45;8.40;;;6.30;;
68938;SDS011;59064;45.294;11.816;2023-05-07T09:12:11;9.60;;;6.60;;
68938;SDS011;59064;45.294;11.816;2023-05-07T09:14:36;8.70;;;6.70;;
68938;SDS011;59064;45.294;11.816;2023-05-07T09:17:02;7.90;;;5.90;;
68938;SDS011;59064;45.294;11.816;2023-05-07T09:19:28;6.80;;;5.50;;
68938;SDS011;59064;45.294;11.816;2023-05-07T09:22:00;7.80;;;5.80;;
68938;SDS011;59064;45.294;11.816;2023-05-07T09:24:27;9.00;;;6.80;;
68938;SDS011;59064;45.294;11.816;2023-05-07T09:26:57;8.50;;;6.60;;
68938;SDS011;59064;45.294;11.816;2023-05-07T09:29:24;8.30;;;5.80;;
68938;SDS011;59064;45.294;11.816;2023-05-07T09:31:50;8.20;;;6.00;;
68938;SDS011;59064;45.294;11.816;2023-05-07T09:34:15;6.90;;;5.50;;
68938;SDS011;59064;45.294;11.816;2023-05-07T09:36:41;7.60;;;6.00;;
68938;SDS011;59064;45.294;11.816;2023-05-07T09:39:07;7.40;;;6.60;;
68938;SDS011;59064;45.294;11.816;2023-05-07T09:41:33;9.70;;;6.40;;
68938;SDS011;59064;45.294;11.816;2023-05-07T09:44:09;11.80;;;7.50;;
68938;SDS011;59064;45.294;11.816;2023-05-07T09:46:36;9.20;;;6.60;;
68938;SDS011;59064;45.294;11.816;2023-05-07T09:49:03;7.20;;;5.70;;
68938;SDS011;59064;45.294;11.816;2023-05-07T09:51:41;8.00;;;6.40;;
68938;SDS011;59064;45.294;11.816;2023-05-07T09:54:10;7.00;;;5.10;;
68938;SDS011;59064;45.294;11.816;2023-05-07T09:56:37;7.80;;;4.70;;
68938;SDS011;59064;45.294;11.816;2023-05-07T09:59:03;8.90;;;6.20;;
68938;SDS011;59064;45.294;11.816;2023-05-07T10:01:32;27.60;;;18.40;;
68938;SDS011;59064;45.294;11.816;2023-05-07T10:04:01;13.70;;;10.10;;
68938;SDS011;59064;45.294;11.816;2023-05-07T10:06:28;10.50;;;7.10;;
68938;SDS011;59064;45.294;11.816;2023-05-07T10:08:55;9.60;;;6.80;;
68938;SDS011;59064;45.294;11.816;2023-05-07T10:11:21;7.30;;;5.30;;
68938;SDS011;59064;45.294;11.816;2023-05-07T10:13:48;7.30;;;4.90;;
68938;SDS011;59064;45.294;11.816;2023-05-07T10:16:14;6.50;;;4.80;;
68938;SDS011;59064;45.294;11.816;2023-05-07T10:18:40;6.50;;;5.20;;
68938;SDS011;59064;45.294;11.816;2023-05-07T10:21:19;6.60;;;4.90;;
68938;SDS011;59064;45.294;11.816;2023-05-07T10:23:48;7.90;;;5.10;;
68938;SDS011;59064;45.294;11.816;2023-05-07T10:26:15;5.90;;;4.30;;
68938;SDS011;59064;45.294;11.816;2023-05-07T10:28:44;6.60;;;4.10;;
68938;SDS011;59064;45.294;11.816;2023-05-07T10:34:02;11.00;;;8.40;;
68938;SDS011;59064;45.294;11.816;2023-05-07T10:36:38;6.10;;;4.80;;
68938;SDS011;59064;45.294;11.816;2023-05-07T10:39:05;8.00;;;5.00;;
68938;SDS011;59064;45.294;11.816;2023-05-07T10:41:31;6.00;;;4.50;;
68938;SDS011;59064;45.294;11.816;2023-05-07T10:43:57;7.10;;;4.20;;
68938;SDS011;59064;45.294;11.816;2023-05-07T10:46:26;6.60;;;4.00;;
68938;SDS011;59064;45.294;11.816;2023-05-07T10:51:31;6.10;;;4.90;;
68938;SDS011;59064;45.294;11.816;2023-05-07T10:56:35;7.40;;;5.20;;
68938;SDS011;59064;45.294;11.816;2023-05-07T11:04:28;7.90;;;5.20;;
68938;SDS011;59064;45.294;11.816;2023-05-07T11:17:32;6.90;;;4.20;;
68938;SDS011;59064;45.294;11.816;2023-05-07T11:19:59;5.70;;;4.30;;
68938;SDS011;59064;45.294;11.816;2023-05-07T11:25:02;7.70;;;4.70;;
68938;SDS011;59064;45.294;11.816;2023-05-07T11:27:29;5.90;;;4.50;;
68938;SDS011;59064;45.294;11.816;2023-05-07T11:29:55;7.90;;;4.90;;
68938;SDS011;59064;45.294;11.816;2023-05-07T11:32:28;7.10;;;4.90;;
68938;SDS011;59064;45.294;11.816;2023-05-07T11:34:55;6.90;;;5.30;;
68938;SDS011;59064;45.294;11.816;2023-05-07T11:37:22;7.20;;;5.30;;
68938;SDS011;59064;45.294;11.816;2023-05-07T11:39:49;6.30;;;4.70;;
68938;SDS011;59064;45.294;11.816;2023-05-07T11:42:28;7.20;;;4.90;;
68938;SDS011;59064;45.294;11.816;2023-05-07T11:45:02;7.30;;;4.80;;
68938;SDS011;59064;45.294;11.816;2023-05-07T11:47:32;7.70;;;4.70;;
68938;SDS011;59064;45.294;11.816;2023-05-07T11:50:02;7.30;;;4.90;;
68938;SDS011;59064;45.294;11.816;2023-05-07T11:52:30;7.40;;;5.10;;
68938;SDS011;59064;45.294;11.816;2023-05-07T11:54:57;8.10;;;6.00;;
68938;SDS011;59064;45.294;11.816;2023-05-07T11:57:28;6.90;;;4.50;;
68938;SDS011;59064;45.294;11.816;2023-05-07T12:02:24;7.80;;;6.10;;
68938;SDS011;59064;45.294;11.816;2023-05-07T12:04:51;7.90;;;5.60;;
68938;SDS011;59064;45.294;11.816;2023-05-07T12:07:17;5.80;;;3.90;;
68938;SDS011;59064;45.294;11.816;2023-05-07T12:09:46;6.40;;;4.40;;
68938;SDS011;59064;45.294;11.816;2023-05-07T12:12:12;7.30;;;5.00;;
68938;SDS011;59064;45.294;11.816;2023-05-07T12:14:40;9.00;;;4.90;;
68938;SDS011;59064;45.294;11.816;2023-05-07T12:17:08;8.10;;;5.30;;
68938;SDS011;59064;45.294;11.816;2023-05-07T12:19:35;6.20;;;5.10;;
68938;SDS011;59064;45.294;11.816;2023-05-07T12:22:04;6.50;;;4.90;;
68938;SDS011;59064;45.294;11.816;2023-05-07T12:27:14;6.70;;;5.30;;
68938;SDS011;59064;45.294;11.816;2023-05-07T12:29:47;6.60;;;5.50;;
68938;SDS011;59064;45.294;11.816;2023-05-07T12:32:14;5.90;;;4.90;;
68938;SDS011;59064;45.294;11.816;2023-05-07T12:34:41;6.00;;;4.70;;
68938;SDS011;59064;45.294;11.816;2023-05-07T12:37:06;6.50;;;5.00;;
68938;SDS011;59064;45.294;11.816;2023-05-07T12:39:32;6.90;;;5.00;;
68938;SDS011;59064;45.294;11.816;2023-05-07T12:41:58;6.10;;;4.80;;
68938;SDS011;59064;45.294;11.816;2023-05-07T12:44:25;6.90;;;5.70;;
68938;SDS011;59064;45.294;11.816;2023-05-07T12:46:55;7.00;;;5.00;;
68938;SDS011;59064;45.294;11.816;2023-05-07T12:49:20;7.10;;;5.70;;
68938;SDS011;59064;45.294;11.816;2023-05-07T12:51:47;8.00;;;6.00;;
68938;SDS011;59064;45.294;11.816;2023-05-07T12:54:13;7.30;;;4.70;;
68938;SDS011;59064;45.294;11.816;2023-05-07T12:56:59;7.40;;;4.40;;
68938;SDS011;59064;45.294;11.816;2023-05-07T12:59:33;6.90;;;5.40;;
68938;SDS011;59064;45.294;11.816;2023-05-07T13:02:05;6.70;;;4.60;;
68938;SDS011;59064;45.294;11.816;2023-05-07T13:04:31;7.90;;;4.70;;
68938;SDS011;59064;45.294;11.816;2023-05-07T13:06:58;5.70;;;4.30;;
68938;SDS011;59064;45.294;11.816;2023-05-07T13:09:24;5.60;;;4.50;;
68938;SDS011;59064;45.294;11.816;2023-05-07T13:11:50;4.70;;;3.80;;
68938;SDS011;59064;45.294;11.816;2023-05-07T13:14:15;5.80;;;4.20;;
68938;SDS011;59064;45.294;11.816;2023-05-07T13:16:41;6.80;;;4.80;;
68938;SDS011;59064;45.294;11.816;2023-05-07T13:19:07;5.90;;;4.50;;
68938;SDS011;59064;45.294;11.816;2023-05-07T13:21:33;6.90;;;4.00;;
68938;SDS011;59064;45.294;11.816;2023-05-07T13:23:59;6.70;;;4.00;;
68938;SDS011;59064;45.294;11.816;2023-05-07T13:26:25;6.60;;;4.30;;
68938;SDS011;59064;45.294;11.816;2023-05-07T13:28:51;8.40;;;4.60;;
68938;SDS011;59064;45.294;11.816;2023-05-07T13:31:19;6.80;;;5.00;;
68938;SDS011;59064;45.294;11.816;2023-05-07T13:33:46;5.30;;;4.10;;
68938;SDS011;59064;45.294;11.816;2023-05-07T13:36:11;6.10;;;4.20;;
68938;SDS011;59064;45.294;11.816;2023-05-07T13:38:37;7.00;;;3.90;;
68938;SDS011;59064;45.294;11.816;2023-05-07T13:41:04;6.10;;;4.50;;
68938;SDS011;59064;45.294;11.816;2023-05-07T13:43:29;5.90;;;4.30;;
68938;SDS011;59064;45.294;11.816;2023-05-07T13:45:56;5.50;;;3.70;;
68938;SDS011;59064;45.294;11.816;2023-05-07T13:48:22;5.70;;;3.80;;
68938;SDS011;59064;45.294;11.816;2023-05-07T13:50:47;5.80;;;4.10;;
68938;SDS011;59064;45.294;11.816;2023-05-07T13:53:13;7.70;;;4.10;;
68938;SDS011;59064;45.294;11.816;2023-05-07T13:55:42;5.20;;;3.90;;
68938;SDS011;59064;45.294;11.816;2023-05-07T13:58:08;6.40;;;4.50;;
68938;SDS011;59064;45.294;11.816;2023-05-07T14:00:34;6.00;;;4.20;;
68938;SDS011;59064;45.294;11.816;2023-05-07T14:03:00;5.90;;;4.10;;
68938;SDS011;59064;45.294;11.816;2023-05-07T14:05:26;5.70;;;3.20;;
68938;SDS011;59064;45.294;11.816;2023-05-07T14:07:53;5.10;;;3.50;;
68938;SDS011;59064;45.294;11.816;2023-05-07T14:10:20;6.40;;;4.20;;
68938;SDS011;59064;45.294;11.816;2023-05-07T14:12:46;5.20;;;3.80;;
68938;SDS011;59064;45.294;11.816;2023-05-07T14:15:12;5.30;;;3.70;;
68938;SDS011;59064;45.294;11.816;2023-05-07T14:17:38;7.00;;;3.90;;
68938;SDS011;59064;45.294;11.816;2023-05-07T14:20:05;6.40;;;4.50;;
68938;SDS011;59064;45.294;11.816;2023-05-07T14:22:33;6.60;;;4.10;;
68938;SDS011;59064;45.294;11.816;2023-05-07T14:24:58;5.10;;;3.70;;
68938;SDS011;59064;45.294;11.816;2023-05-07T14:27:24;5.80;;;3.90;;
68938;SDS011;59064;45.294;11.816;2023-05-07T14:29:49;5.40;;;3.60;;
68938;SDS011;59064;45.294;11.816;2023-05-07T14:32:17;5.90;;;4.80;;
68938;SDS011;59064;45.294;11.816;2023-05-07T14:34:43;7.10;;;4.80;;
68938;SDS011;59064;45.294;11.816;2023-05-07T14:37:11;5.50;;;4.00;;
68938;SDS011;59064;45.294;11.816;2023-05-07T14:39:37;5.20;;;4.00;;
68938;SDS011;59064;45.294;11.816;2023-05-07T14:42:02;5.90;;;3.90;;
68938;SDS011;59064;45.294;11.816;2023-05-07T14:44:28;5.10;;;3.60;;
68938;SDS011;59064;45.294;11.816;2023-05-07T14:46:54;4.50;;;3.60;;
68938;SDS011;59064;45.294;11.816;2023-05-07T14:49:20;5.80;;;3.50;;
68938;SDS011;59064;45.294;11.816;2023-05-07T14:51:46;4.70;;;3.50;;